Spirit Of New York — WCW9332 — position and weather

sailwx.info

Track history (hours):
 
Tides and Currents Weather Stations Pressure Air Temp Water Temp Dewpoint Dewpoint Depression Visibility Wind Speed Wind Dir Waves Ship Positions

Spirit Of New York

Owner: SPIRIT CRUISES LLC, NEW YORK, NY. More information available from US FCC via Universal Licensing System and Coast Guard Vessel Documentation Center.

Last reported at 2017-Apr-25 01:30 UTC. Time now 2017-Apr-25 20:25 UTC.
Position N 40°45' W 074°01'.

Length 62 m.

Type: Passenger vessel. MMSI: 338897000.

Date/timePositionNaut miles runAvg speedWind from/ knotsBaromVisibWave heightAir tempDewpointWater temp
2017-Apr-25 01:30N 40°45' W 074°01'1 2.7
2017-Apr-25 01:00N 40°44' W 074°01'2 4.9
2017-Apr-25 00:30N 40°41' W 074°02'1 2.5
2017-Apr-25 00:00N 40°42' W 074°01'3 5.9
2017-Apr-24 23:30N 40°45' W 074°01'0 0.7
2017-Apr-24 23:00N 40°45' W 074°01'0 0.0
2017-Apr-24 01:45N 40°45' W 074°01'0 0.2
2017-Apr-24 01:30N 40°45' W 074°01'4 7.4
2017-Apr-24 01:00N 40°41' W 074°02'1 2.0
2017-Apr-24 00:30N 40°42' W 074°01'0 0.8
2017-Apr-24 00:00N 40°43' W 074°02'4 7.2
2017-Apr-23 23:30N 40°46' W 074°01'1 2.3
2017-Apr-23 23:00N 40°45' W 074°01'0 0.0
2017-Apr-23 22:30N 40°45' W 074°01'0 0.0
2017-Apr-23 22:00N 40°45' W 074°01'0 0.0
2017-Apr-23 21:30N 40°45' W 074°01'0 0.0
2017-Apr-23 21:00N 40°45' W 074°01'0 0.0
2017-Apr-23 20:30N 40°45' W 074°01'0 0.0
2017-Apr-23 20:00N 40°45' W 074°01'0 0.0
2017-Apr-23 19:30N 40°45' W 074°01'0 0.0
2017-Apr-23 19:00N 40°45' W 074°01'0 0.0
2017-Apr-23 18:30N 40°45' W 074°01'0 0.0
2017-Apr-23 18:00N 40°45' W 074°01'2 4.4
2017-Apr-23 17:30N 40°43' W 074°01'2 3.0
2017-Apr-23 17:00N 40°41' W 074°02'1 3.0
2017-Apr-23 16:30N 40°43' W 074°01'2 4.4
2017-Apr-23 16:00N 40°45' W 074°01'0 0.0
2017-Apr-23 15:30N 40°45' W 074°01'0 0.0
2017-Apr-23 15:00N 40°45' W 074°01'0 0.0
2017-Apr-23 14:00N 40°45' W 074°01'0 0.0
2017-Apr-23 05:56N 40°45' W 074°01'1 1.5
2017-Apr-23 05:30N 40°44' W 074°01'2 4.8
2017-Apr-23 05:00N 40°42' W 074°01'1 2.3
2017-Apr-23 04:30N 40°43' W 074°02'2 3.8
2017-Apr-23 04:00N 40°45' W 074°01'0 0.0
2017-Apr-23 03:29N 40°45' W 074°01'0 0.0
2017-Apr-23 03:00N 40°45' W 074°01'0 0.0
2017-Apr-23 02:30N 40°45' W 074°01'0 0.0
2017-Apr-23 02:00N 40°45' W 074°01'0 0.9
2017-Apr-23 01:30N 40°44' W 074°01'3 6.0
2017-Apr-23 01:00N 40°42' W 074°02'1 2.0
2017-Apr-23 00:30N 40°42' W 074°01'2 3.4
2017-Apr-23 00:00N 40°43' W 074°02'2 3.1
2017-Apr-22 23:30N 40°45' W 074°01'0 0.3
2017-Apr-22 23:00N 40°45' W 074°01'0 0.0
2017-Apr-22 22:30N 40°45' W 074°01'0 0.0
2017-Apr-22 22:00N 40°45' W 074°01'0 0.0
2017-Apr-22 21:30N 40°45' W 074°01'0 0.0
2017-Apr-22 18:04N 40°45' W 074°01'0 0.0
2017-Apr-22 18:00N 40°45' W 074°01'2 3.1
2017-Apr-22 17:30N 40°43' W 074°01'2 4.8
2017-Apr-22 17:00N 40°41' W 074°02'2 3.8
2017-Apr-22 16:30N 40°42' W 074°00'3 5.8
2017-Apr-22 16:00N 40°45' W 074°01'0 0.0
2017-Apr-22 15:30N 40°45' W 074°01'0 0.0
2017-Apr-22 15:00N 40°45' W 074°01'0 0.0
2017-Apr-22 01:21N 40°45' W 074°01'1 2.6
2017-Apr-22 01:00N 40°44' W 074°01'3 6.2
2017-Apr-22 00:31N 40°41' W 074°03'2 3.7
2017-Apr-22 00:01N 40°42' W 074°00'3 6.1
2017-Apr-21 23:31N 40°45' W 074°01'0 0.4
2017-Apr-21 23:00N 40°45' W 074°01'0 0.0
2017-Apr-21 22:30N 40°45' W 074°01'0 0.0
2017-Apr-21 22:00N 40°45' W 074°01'0 0.0
2017-Apr-21 21:30N 40°45' W 074°01'0 0.0
2017-Apr-21 21:00N 40°45' W 074°01'0 0.0
2017-Apr-21 20:30N 40°45' W 074°01'0 0.0
2017-Apr-21 20:00N 40°45' W 074°01'0 0.0
2017-Apr-21 19:30N 40°45' W 074°01'0 0.0
2017-Apr-21 19:00N 40°45' W 074°01'0 0.0
2017-Apr-21 18:30N 40°45' W 074°01'0 0.0
2017-Apr-21 18:00N 40°45' W 074°01'2 3.5
2017-Apr-21 17:30N 40°43' W 074°01'2 4.3
2017-Apr-21 17:01N 40°41' W 074°02'1 3.0
2017-Apr-21 16:31N 40°42' W 074°01'2 4.9
2017-Apr-21 16:00N 40°45' W 074°01'0 0.0
2017-Apr-21 15:30N 40°45' W 074°01'0 0.0
2017-Apr-21 01:21N 40°45' W 074°01'1 3.6
2017-Apr-21 01:00N 40°44' W 074°01'3 5.3
2017-Apr-21 00:30N 40°41' W 074°02'2 4.1
2017-Apr-21 00:00N 40°42' W 074°00'2 4.8
2017-Apr-20 23:30N 40°44' W 074°01'1 0.0
2017-Apr-20 09:42N 40°45' W 074°01'0 0.4
2017-Apr-20 09:30N 40°45' W 074°01'4 7.4
2017-Apr-20 09:00N 40°48' W 073°59'4 7.5
2017-Apr-20 08:30N 40°52' W 073°57'4 7.4
2017-Apr-20 07:59N 40°55' W 073°55'  
2017-Apr-17 09:06N 40°59' W 073°54'2 6.4
2017-Apr-17 08:52N 40°57' W 073°54'3 6.8
2017-Apr-17 08:29N 40°55' W 073°55'4 7.8
2017-Apr-17 08:00N 40°51' W 073°57'4 7.8
2017-Apr-17 07:31N 40°48' W 073°59'3 6.4
2017-Apr-17 07:00N 40°45' W 074°01'0 0.0
2017-Apr-17 06:30N 40°45' W 074°01'0 0.0
2017-Apr-17 06:01N 40°45' W 074°01'0 0.0
2017-Apr-17 05:30N 40°45' W 074°01'0 0.0
2017-Apr-17 05:00N 40°45' W 074°01'0 0.0
2017-Apr-17 04:30N 40°45' W 074°01'0 0.0
2017-Apr-17 04:00N 40°45' W 074°01'0 0.0
2017-Apr-17 03:30N 40°45' W 074°01'0 0.0
2017-Apr-17 03:00N 40°45' W 074°01'0 0.0
2017-Apr-17 02:30N 40°45' W 074°01'0 0.0
2017-Apr-17 02:00N 40°45' W 074°01'0 0.0
2017-Apr-17 01:30N 40°45' W 074°01'1 2.2
2017-Apr-17 01:01N 40°44' W 074°01'2 3.5
2017-Apr-17 00:31N 40°42' W 073°60'2 4.2
2017-Apr-17 00:01N 40°41' W 074°02'4 7.4
2017-Apr-16 23:30N 40°45' W 074°01'0 0.5
2017-Apr-16 23:00N 40°45' W 074°01'0 0.0
2017-Apr-16 22:30N 40°45' W 074°01'0 0.0
2017-Apr-16 22:00N 40°45' W 074°01'0 0.0
2017-Apr-16 21:30N 40°45' W 074°01'0 0.0
2017-Apr-16 21:00N 40°45' W 074°01'0 0.0
2017-Apr-16 20:30N 40°45' W 074°01'0 0.0
2017-Apr-16 20:00N 40°45' W 074°01'0 0.0
2017-Apr-16 19:30N 40°45' W 074°01'0 0.0
2017-Apr-16 19:00N 40°45' W 074°01'0 0.0
2017-Apr-16 18:30N 40°45' W 074°01'0 0.0
2017-Apr-16 18:00N 40°45' W 074°01'2 4.7
2017-Apr-16 17:31N 40°43' W 074°01'1 1.8
2017-Apr-16 17:01N 40°42' W 074°02'1 3.0
2017-Apr-16 16:30N 40°43' W 074°01'2 3.4
2017-Apr-16 16:00N 40°45' W 074°01'0 0.0
2017-Apr-16 15:30N 40°45' W 074°01'0 0.0
2017-Apr-16 15:00N 40°45' W 074°01'0 0.0
2017-Apr-16 14:30N 40°45' W 074°01'0 0.0
2017-Apr-16 02:21N 40°45' W 074°01'0 0.0
2017-Apr-16 02:00N 40°45' W 074°01'1 1.7
2017-Apr-16 01:30N 40°44' W 074°01'3 5.6
2017-Apr-16 01:00N 40°41' W 074°02'2 3.2
2017-Apr-16 00:30N 40°42' W 074°00'0 0.9
2017-Apr-16 00:00N 40°42' W 074°01'4 7.1
2017-Apr-15 23:30N 40°45' W 074°01'0 0.8
2017-Apr-15 23:00N 40°45' W 074°01'0 0.0
2017-Apr-15 22:30N 40°45' W 074°01'0 0.0
2017-Apr-15 22:00N 40°45' W 074°01'  
Track history (hours):
 
Tides and Currents Weather Stations Pressure Air Temp Water Temp Dewpoint Dewpoint Depression Visibility Wind Speed Wind Dir Waves Ship Positions

Spirit Of New York

Owner: SPIRIT CRUISES LLC, NEW YORK, NY. More information available from US FCC via Universal Licensing System and Coast Guard Vessel Documentation Center.

Last reported at 2017-Apr-25 01:30 UTC. Time now 2017-Apr-25 20:25 UTC.
Position N 40°45' W 074°01'.

Length 62 m.

Type: Passenger vessel. MMSI: 338897000.

Date/timePositionNaut miles runAvg speedWind from/ knotsBaromVisibWave heightAir tempDewpointWater temp
2017-Apr-25 01:30N 40°45' W 074°01'1 2.7
2017-Apr-25 01:00N 40°44' W 074°01'2 4.9
2017-Apr-25 00:30N 40°41' W 074°02'1 2.5
2017-Apr-25 00:00N 40°42' W 074°01'3 5.9
2017-Apr-24 23:30N 40°45' W 074°01'0 0.7
2017-Apr-24 23:00N 40°45' W 074°01'0 0.0
2017-Apr-24 01:45N 40°45' W 074°01'0 0.2
2017-Apr-24 01:30N 40°45' W 074°01'4 7.4
2017-Apr-24 01:00N 40°41' W 074°02'1 2.0
2017-Apr-24 00:30N 40°42' W 074°01'0 0.8
2017-Apr-24 00:00N 40°43' W 074°02'4 7.2
2017-Apr-23 23:30N 40°46' W 074°01'1 2.3
2017-Apr-23 23:00N 40°45' W 074°01'0 0.0
2017-Apr-23 22:30N 40°45' W 074°01'0 0.0
2017-Apr-23 22:00N 40°45' W 074°01'0 0.0
2017-Apr-23 21:30N 40°45' W 074°01'0 0.0
2017-Apr-23 21:00N 40°45' W 074°01'0 0.0
2017-Apr-23 20:30N 40°45' W 074°01'0 0.0
2017-Apr-23 20:00N 40°45' W 074°01'0 0.0
2017-Apr-23 19:30N 40°45' W 074°01'0 0.0
2017-Apr-23 19:00N 40°45' W 074°01'0 0.0
2017-Apr-23 18:30N 40°45' W 074°01'0 0.0
2017-Apr-23 18:00N 40°45' W 074°01'2 4.4
2017-Apr-23 17:30N 40°43' W 074°01'2 3.0
2017-Apr-23 17:00N 40°41' W 074°02'1 3.0
2017-Apr-23 16:30N 40°43' W 074°01'2 4.4
2017-Apr-23 16:00N 40°45' W 074°01'0 0.0
2017-Apr-23 15:30N 40°45' W 074°01'0 0.0
2017-Apr-23 15:00N 40°45' W 074°01'0 0.0
2017-Apr-23 14:00N 40°45' W 074°01'0 0.0
2017-Apr-23 05:56N 40°45' W 074°01'1 1.5
2017-Apr-23 05:30N 40°44' W 074°01'2 4.8
2017-Apr-23 05:00N 40°42' W 074°01'1 2.3
2017-Apr-23 04:30N 40°43' W 074°02'2 3.8
2017-Apr-23 04:00N 40°45' W 074°01'0 0.0
2017-Apr-23 03:29N 40°45' W 074°01'0 0.0
2017-Apr-23 03:00N 40°45' W 074°01'0 0.0
2017-Apr-23 02:30N 40°45' W 074°01'0 0.0
2017-Apr-23 02:00N 40°45' W 074°01'0 0.9
2017-Apr-23 01:30N 40°44' W 074°01'3 6.0
2017-Apr-23 01:00N 40°42' W 074°02'1 2.0
2017-Apr-23 00:30N 40°42' W 074°01'2 3.4
2017-Apr-23 00:00N 40°43' W 074°02'2 3.1
2017-Apr-22 23:30N 40°45' W 074°01'0 0.3
2017-Apr-22 23:00N 40°45' W 074°01'0 0.0
2017-Apr-22 22:30N 40°45' W 074°01'0 0.0
2017-Apr-22 22:00N 40°45' W 074°01'0 0.0
2017-Apr-22 21:30N 40°45' W 074°01'0 0.0
2017-Apr-22 18:04N 40°45' W 074°01'0 0.0
2017-Apr-22 18:00N 40°45' W 074°01'2 3.1
2017-Apr-22 17:30N 40°43' W 074°01'2 4.8
2017-Apr-22 17:00N 40°41' W 074°02'2 3.8
2017-Apr-22 16:30N 40°42' W 074°00'3 5.8
2017-Apr-22 16:00N 40°45' W 074°01'0 0.0
2017-Apr-22 15:30N 40°45' W 074°01'0 0.0
2017-Apr-22 15:00N 40°45' W 074°01'0 0.0
2017-Apr-22 01:21N 40°45' W 074°01'1 2.6
2017-Apr-22 01:00N 40°44' W 074°01'3 6.2
2017-Apr-22 00:31N 40°41' W 074°03'2 3.7
2017-Apr-22 00:01N 40°42' W 074°00'3 6.1
2017-Apr-21 23:31N 40°45' W 074°01'0 0.4
2017-Apr-21 23:00N 40°45' W 074°01'0 0.0
2017-Apr-21 22:30N 40°45' W 074°01'0 0.0
2017-Apr-21 22:00N 40°45' W 074°01'0 0.0
2017-Apr-21 21:30N 40°45' W 074°01'0 0.0
2017-Apr-21 21:00N 40°45' W 074°01'0 0.0
2017-Apr-21 20:30N 40°45' W 074°01'0 0.0
2017-Apr-21 20:00N 40°45' W 074°01'0 0.0
2017-Apr-21 19:30N 40°45' W 074°01'0 0.0
2017-Apr-21 19:00N 40°45' W 074°01'0 0.0
2017-Apr-21 18:30N 40°45' W 074°01'0 0.0
2017-Apr-21 18:00N 40°45' W 074°01'2 3.5
2017-Apr-21 17:30N 40°43' W 074°01'2 4.3
2017-Apr-21 17:01N 40°41' W 074°02'1 3.0
2017-Apr-21 16:31N 40°42' W 074°01'2 4.9
2017-Apr-21 16:00N 40°45' W 074°01'0 0.0
2017-Apr-21 15:30N 40°45' W 074°01'0 0.0
2017-Apr-21 01:21N 40°45' W 074°01'1 3.6
2017-Apr-21 01:00N 40°44' W 074°01'3 5.3
2017-Apr-21 00:30N 40°41' W 074°02'2 4.1
2017-Apr-21 00:00N 40°42' W 074°00'2 4.8
2017-Apr-20 23:30N 40°44' W 074°01'1 0.0
2017-Apr-20 09:42N 40°45' W 074°01'0 0.4
2017-Apr-20 09:30N 40°45' W 074°01'4 7.4
2017-Apr-20 09:00N 40°48' W 073°59'4 7.5
2017-Apr-20 08:30N 40°52' W 073°57'4 7.4
2017-Apr-20 07:59N 40°55' W 073°55'  
2017-Apr-17 09:06N 40°59' W 073°54'2 6.4
2017-Apr-17 08:52N 40°57' W 073°54'3 6.8
2017-Apr-17 08:29N 40°55' W 073°55'4 7.8
2017-Apr-17 08:00N 40°51' W 073°57'4 7.8
2017-Apr-17 07:31N 40°48' W 073°59'3 6.4
2017-Apr-17 07:00N 40°45' W 074°01'0 0.0
2017-Apr-17 06:30N 40°45' W 074°01'0 0.0
2017-Apr-17 06:01N 40°45' W 074°01'0 0.0
2017-Apr-17 05:30N 40°45' W 074°01'0 0.0
2017-Apr-17 05:00N 40°45' W 074°01'0 0.0
2017-Apr-17 04:30N 40°45' W 074°01'0 0.0
2017-Apr-17 04:00N 40°45' W 074°01'0 0.0
2017-Apr-17 03:30N 40°45' W 074°01'0 0.0
2017-Apr-17 03:00N 40°45' W 074°01'0 0.0
2017-Apr-17 02:30N 40°45' W 074°01'0 0.0
2017-Apr-17 02:00N 40°45' W 074°01'0 0.0
2017-Apr-17 01:30N 40°45' W 074°01'1 2.2
2017-Apr-17 01:01N 40°44' W 074°01'2 3.5
2017-Apr-17 00:31N 40°42' W 073°60'2 4.2
2017-Apr-17 00:01N 40°41' W 074°02'4 7.4
2017-Apr-16 23:30N 40°45' W 074°01'0 0.5
2017-Apr-16 23:00N 40°45' W 074°01'0 0.0
2017-Apr-16 22:30N 40°45' W 074°01'0 0.0
2017-Apr-16 22:00N 40°45' W 074°01'0 0.0
2017-Apr-16 21:30N 40°45' W 074°01'0 0.0
2017-Apr-16 21:00N 40°45' W 074°01'0 0.0
2017-Apr-16 20:30N 40°45' W 074°01'0 0.0
2017-Apr-16 20:00N 40°45' W 074°01'0 0.0
2017-Apr-16 19:30N 40°45' W 074°01'0 0.0
2017-Apr-16 19:00N 40°45' W 074°01'0 0.0
2017-Apr-16 18:30N 40°45' W 074°01'0 0.0
2017-Apr-16 18:00N 40°45' W 074°01'2 4.7
2017-Apr-16 17:31N 40°43' W 074°01'1 1.8
2017-Apr-16 17:01N 40°42' W 074°02'1 3.0
2017-Apr-16 16:30N 40°43' W 074°01'2 3.4
2017-Apr-16 16:00N 40°45' W 074°01'0 0.0
2017-Apr-16 15:30N 40°45' W 074°01'0 0.0
2017-Apr-16 15:00N 40°45' W 074°01'0 0.0
2017-Apr-16 14:30N 40°45' W 074°01'0 0.0
2017-Apr-16 02:21N 40°45' W 074°01'0 0.0
2017-Apr-16 02:00N 40°45' W 074°01'1 1.7
2017-Apr-16 01:30N 40°44' W 074°01'3 5.6
2017-Apr-16 01:00N 40°41' W 074°02'2 3.2
2017-Apr-16 00:30N 40°42' W 074°00'0 0.9
2017-Apr-16 00:00N 40°42' W 074°01'4 7.1
2017-Apr-15 23:30N 40°45' W 074°01'0 0.8
2017-Apr-15 23:00N 40°45' W 074°01'0 0.0
2017-Apr-15 22:30N 40°45' W 074°01'0 0.0
2017-Apr-15 22:00N 40°45' W 074°01'  

Dump ship's entire track history